Deer Park, WA

12:31 PM PST on February 01, 2015 (GMT -0800)
800 North Vernon Ave | Change Station
CLOSE
Current Station
Personal Weather Station
Location: Deer Park, WA
Elevation: 2132 ft
Nearby Weather Stations
Active Advisory: Winter Weather Advisory Active Notice: Record Report

Elev 2132 ft 47.96 °N, 117.48 °W | Updated 4 seconds ago

Light Snow
Light Snow Mist
33.4 °F
Feels Like 33 °F
N
0.0
Wind Variable Wind from NE
Gusts 0.0 mph

Today
High -- | Low -- °F
--% Chance of Precip.
Yesterday
High -- | Low -- °F
Precip. -- in
7:17 AM 4:49 PM
Waxing Gibbous, 96% visible
Pressure 30.07 in
Visibility 3.0 miles
Clouds Scattered Clouds 600 ft
Mostly Cloudy 2400 ft
Overcast 5000 ft
Windchill 33 °F
Dew Point 23 °F
Humidity 66%
Rainfall 0.08 in
Snow Depth Not available.
UV 1 out of 12
Pollen .40 out of 12
Air Quality Not available.
Flu Activity Not available.
SPECI KDEW 012020Z AUTO 05005KT 3SM -SN BR SCT006 BKN024 OVC050 01/M01 A3007 RMK AO2 P0000 T00061011

More Conditions Fewer Conditions

Pressure 30.07 in
Visibility 3.0 miles
Clouds Scattered Clouds 600 ft
Mostly Cloudy 2400 ft
Overcast 5000 ft
Windchill 33 °F
Dew Point 23 °F
Humidity 66%
Rainfall 0.08 in
Snow Depth Not available.
UV 1 out of 12
Pollen .40 out of 12
Air Quality Not available.
Flu Activity Not available.
SPECI KDEW 012020Z AUTO 05005KT 3SM -SN BR SCT006 BKN024 OVC050 01/M01 A3007 RMK AO2 P0000 T00061011

More Conditions Fewer Conditions

10-Day Weather Forecast

Almanac

Astronomy

Feb. 01, 2015 Rise Set
Actual Time
Civil Twilight
Nautical Twilight
Astronomical Twilight
Moon
Length of Visible Light
Length of Day
Tomorrow will be .
, % of the Moon is Illuminated

Today's Extremes

State Highs State Lows

Community

WunderPhotos

Upload Photos

1,792,511 photos uploaded!

WunderBlogs® & News

Nearby

Air Quality

  Air Quality AQ Index Pollutant
Not available.

Snow Depth

Station Depth Elevation

Earthquake Activity

City Distance Mag. Time & Date
Minimum magnitude displayed is 2.5.

Coastal Water Temperatures

Place Temperature

Nearby Weather Stations